Time;durP1;ratioP1;P1;durP2;ratioP2;P2;SDS_P1;SDS_P2;PMS_P1;PMS_P2;Temp;Humidity;BMP_temperature;BMP_pressure;BME280_temperature;BME280_humidity;BME280_pressure;Samples;Min_cycle;Max_cycle;Signal;HPM_P1;HPM_P2
2022/12/21 00:01:27;;;;;;;7.40;5.07;;;16.80;51.40;;;;;;4964833;29;20033;-62
2022/12/21 00:03:58;;;;;;;7.75;5.20;;;16.80;51.40;;;;;;4964520;29;20015;-62
2022/12/21 00:06:26;;;;;;;8.38;6.15;;;16.90;51.50;;;;;;4964702;29;20066;-62
2022/12/21 00:08:54;;;;;;;8.50;5.97;;;16.90;51.70;;;;;;4964542;29;20090;-62
2022/12/21 00:11:21;;;;;;;7.65;5.47;;;16.80;51.60;;;;;;4964620;29;20037;-63
2022/12/21 00:13:47;;;;;;;7.13;5.28;;;16.90;51.60;;;;;;4964451;29;20341;-63
2022/12/21 00:16:16;;;;;;;8.70;5.68;;;16.90;51.50;;;;;;4964486;29;20028;-62
2022/12/21 00:18:43;;;;;;;8.18;5.90;;;17.00;51.40;;;;;;4964401;29;20150;-62
2022/12/21 00:21:14;;;;;;;7.20;5.47;;;17.00;51.30;;;;;;4964475;29;20363;-63
2022/12/21 00:23:41;;;;;;;8.10;5.22;;;17.00;51.40;;;;;;4964152;29;20230;-62
2022/12/21 00:26:11;;;;;;;7.25;5.38;;;17.00;51.10;;;;;;4964330;29;20023;-62
2022/12/21 00:28:37;;;;;;;9.52;6.07;;;17.00;51.10;;;;;;4964301;29;20038;-62
2022/12/21 00:31:15;;;;;;;8.82;5.75;;;16.90;51.20;;;;;;4964156;29;20046;-62
2022/12/21 00:33:42;;;;;;;7.22;5.50;;;16.80;51.50;;;;;;4964175;29;20122;-62
2022/12/21 00:36:12;;;;;;;7.97;6.13;;;16.70;51.70;;;;;;4963978;29;20031;-62
2022/12/21 00:38:38;;;;;;;7.40;5.28;;;16.60;51.90;;;;;;4964387;29;20253;-62
2022/12/21 00:41:06;;;;;;;8.68;5.60;;;16.60;52.00;;;;;;4963444;28;20023;-62
2022/12/21 00:43:33;;;;;;;9.88;5.78;;;16.50;52.20;;;;;;4963974;29;20019;-62
2022/12/21 00:45:59;;;;;;;7.40;4.95;;;16.50;52.20;;;;;;4964019;29;20035;-62
2022/12/21 00:48:27;;;;;;;7.10;5.22;;;16.50;52.20;;;;;;4963939;29;20035;-62
2022/12/21 00:50:53;;;;;;;7.90;5.75;;;16.50;52.50;;;;;;4963782;29;20062;-63
2022/12/21 00:53:19;;;;;;;7.00;5.13;;;16.40;52.20;;;;;;4963775;29;20094;-62
2022/12/21 00:55:55;;;;;;;8.38;5.53;;;16.40;52.30;;;;;;4963753;29;20031;-62
2022/12/21 00:58:22;;;;;;;9.27;5.93;;;16.50;52.30;;;;;;4962422;29;20300;-62
2022/12/21 01:00:48;;;;;;;8.20;5.55;;;16.50;52.20;;;;;;4963636;29;20031;-62
2022/12/21 01:03:14;;;;;;;9.57;6.45;;;16.50;52.20;;;;;;4963661;29;20353;-61
2022/12/21 01:05:39;;;;;;;8.23;5.60;;;16.50;52.10;;;;;;4963581;29;20081;-62
2022/12/21 01:08:05;;;;;;;9.13;5.72;;;16.50;52.20;;;;;;4963483;29;20058;-62
2022/12/21 01:10:31;;;;;;;7.13;5.40;;;16.60;52.00;;;;;;4963512;29;20349;-62
2022/12/21 01:12:57;;;;;;;8.57;5.57;;;16.60;51.90;;;;;;4963285;29;20326;-62
2022/12/21 01:15:23;;;;;;;8.65;5.88;;;16.70;51.70;;;;;;4963331;29;20053;-62
2022/12/21 01:17:49;;;;;;;8.23;5.43;;;16.70;51.60;;;;;;4963369;29;20031;-62
2022/12/21 01:20:15;;;;;;;7.35;5.00;;;16.80;51.50;;;;;;4963283;29;20055;-62
2022/12/21 01:22:41;;;;;;;8.25;5.85;;;16.80;51.60;;;;;;4963193;29;20041;-63
2022/12/21 01:25:07;;;;;;;8.32;5.32;;;16.80;51.40;;;;;;4963238;29;20038;-62
2022/12/21 01:27:33;;;;;;;6.40;5.00;;;16.80;51.50;;;;;;4963278;29;20030;-62
2022/12/21 01:29:58;;;;;;;9.20;6.20;;;16.90;51.60;;;;;;4963177;29;20027;-62
2022/12/21 01:32:24;;;;;;;8.52;5.85;;;16.90;51.40;;;;;;4963113;29;20091;-63
2022/12/21 01:34:50;;;;;;;8.93;5.78;;;16.90;51.20;;;;;;4963154;29;20030;-62
2022/12/21 01:37:16;;;;;;;8.10;5.45;;;17.00;51.20;;;;;;4963135;29;20027;-61
2022/12/21 01:39:41;;;;;;;7.30;5.28;;;17.00;50.90;;;;;;4963091;29;20027;-63
2022/12/21 01:42:12;;;;;;;5.93;4.85;;;17.10;51.00;;;;;;4963060;29;20218;-62
2022/12/21 01:45:02;;;;;;;7.97;5.93;;;17.00;51.00;;;;;;4962925;29;20120;-62
2022/12/21 01:47:36;;;;;;;7.88;5.32;;;16.90;51.20;;;;;;4962751;29;20027;-62
2022/12/21 01:50:22;;;;;;;8.68;5.35;;;16.80;51.50;;;;;;4963041;29;20330;-62
2022/12/21 01:52:49;;;;;;;6.90;5.28;;;16.70;51.60;;;;;;4962117;28;20027;-65
2022/12/21 01:55:15;;;;;;;8.02;5.72;;;16.70;51.90;;;;;;4962626;29;20051;-62
2022/12/21 01:57:40;;;;;;;7.28;5.45;;;16.60;51.70;;;;;;4962775;29;20019;-62
2022/12/21 02:00:09;;;;;;;6.90;4.88;;;16.60;51.90;;;;;;4962837;29;20063;-62
2022/12/21 02:02:44;;;;;;;7.50;5.15;;;16.60;52.10;;;;;;4962737;29;20386;-62
2022/12/21 02:05:28;;;;;;;8.43;5.40;;;16.50;52.40;;;;;;4962787;29;20196;-62
2022/12/21 02:07:58;;;;;;;7.65;5.78;;;16.50;52.30;;;;;;4962647;29;20081;-63
2022/12/21 02:10:24;;;;;;;7.40;5.43;;;16.50;52.10;;;;;;4962703;29;20369;-62
2022/12/21 02:12:54;;;;;;;7.95;5.78;;;16.40;52.10;;;;;;4962596;29;20035;-62
2022/12/21 02:15:28;;;;;;;7.53;5.68;;;16.50;52.20;;;;;;4962660;29;20050;-64
2022/12/21 02:18:13;;;;;;;8.32;5.45;;;16.50;52.20;;;;;;4962679;29;20211;-62
2022/12/21 02:20:54;;;;;;;8.65;5.32;;;16.40;52.20;;;;;;4962680;29;20023;-62
2022/12/21 02:24:10;;;;;;;8.10;5.43;;;16.50;52.00;;;;;;4962649;29;20023;-62
2022/12/21 02:26:53;;;;;;;7.20;5.25;;;16.60;51.80;;;;;;4953520;29;20047;-63
2022/12/21 02:29:40;;;;;;;7.25;5.68;;;16.60;51.80;;;;;;4962534;29;20046;-62
2022/12/21 02:32:36;;;;;;;7.35;5.38;;;16.70;51.80;;;;;;4961128;29;20306;-62
2022/12/21 02:35:20;;;;;;;9.55;5.75;;;16.80;51.60;;;;;;4962561;29;20027;-63
2022/12/21 02:38:04;;;;;;;5.75;4.68;;;16.80;51.40;;;;;;4962362;29;20031;-62
2022/12/21 02:40:56;;;;;;;7.50;5.22;;;16.80;51.40;;;;;;4962460;29;20094;-62
2022/12/21 02:46:33;;;;;;;8.40;6.20;;;16.90;51.50;;;;;;4962454;29;20053;-62
2022/12/21 02:49:10;;;;;;;7.80;5.40;;;16.90;51.40;;;;;;4962419;29;20110;-62
2022/12/21 02:52:09;;;;;;;6.97;5.45;;;17.00;51.30;;;;;;4962243;29;20038;-62
2022/12/21 02:54:38;;;;;;;7.63;5.32;;;17.00;51.20;;;;;;4962003;29;20028;-62
2022/12/21 02:57:05;;;;;;;7.00;5.32;;;17.00;51.20;;;;;;4962260;29;20031;-62
2022/12/21 02:59:36;;;;;;;8.57;5.68;;;16.90;51.30;;;;;;4962271;29;20055;-62
2022/12/21 03:02:41;;;;;;;8.50;5.82;;;16.90;51.30;;;;;;4962306;29;20630;-62
2022/12/21 03:05:24;;;;;;;8.98;5.75;;;16.80;51.40;;;;;;4963819;28;20319;-62
2022/12/21 03:08:21;;;;;;;7.30;5.35;;;16.70;51.70;;;;;;4965570;29;20051;-62
2022/12/21 03:10:50;;;;;;;7.80;5.40;;;16.60;51.80;;;;;;4965647;29;20023;-62
2022/12/21 03:13:31;;;;;;;;;;;16.50;52.10;;;;;;4965912;29;20098;-62
2022/12/21 03:16:17;;;;;;;8.85;5.63;;;16.40;52.30;;;;;;4965573;29;20105;-63
2022/12/21 03:19:08;;;;;;;7.65;5.20;;;16.40;52.30;;;;;;4965294;29;20035;-63
2022/12/21 03:21:37;;;;;;;8.98;5.53;;;16.40;52.50;;;;;;4965559;29;20023;-62
2022/12/21 03:24:45;;;;;;;8.70;5.82;;;16.40;52.50;;;;;;4965560;29;20398;-62
2022/12/21 03:27:21;;;;;;;7.70;5.25;;;16.40;52.20;;;;;;4955229;29;20044;-62
2022/12/21 03:29:54;;;;;;;7.63;5.88;;;16.40;52.10;;;;;;4965363;29;20027;-62
2022/12/21 03:32:53;;;;;;;8.07;5.88;;;16.40;52.10;;;;;;4963967;29;20041;-62
2022/12/21 03:35:25;;;;;;;7.65;5.53;;;16.40;52.00;;;;;;4964998;29;20107;-62
2022/12/21 03:37:52;;;;;;;6.75;5.13;;;16.50;52.00;;;;;;4965025;29;20235;-62
2022/12/21 03:40:27;;;;;;;7.53;5.35;;;16.50;51.70;;;;;;4965112;29;20082;-62
2022/12/21 03:43:19;;;;;;;10.15;5.95;;;16.60;51.80;;;;;;4965232;29;20027;-63
2022/12/21 03:45:50;;;;;;;8.68;5.78;;;16.70;51.60;;;;;;4962054;29;20043;-62
2022/12/21 03:48:22;;;;;;;7.68;5.63;;;16.80;51.50;;;;;;4965068;29;20023;-62
2022/12/21 03:50:51;;;;;;;5.75;4.25;;;16.80;51.20;;;;;;4965007;29;20019;-62
2022/12/21 03:53:16;;;;;;;6.88;5.22;;;16.80;51.30;;;;;;4964865;29;20049;-62
2022/12/21 03:55:44;;;;;;;6.47;4.93;;;16.90;51.40;;;;;;4964871;29;20023;-62
2022/12/21 03:58:10;;;;;;;7.68;5.63;;;16.90;51.50;;;;;;4963617;29;20038;-63
2022/12/21 04:00:49;;;;;;;7.57;5.30;;;16.80;51.50;;;;;;4964917;29;20019;-62
2022/12/21 04:03:27;;;;;;;6.13;4.80;;;16.80;51.40;;;;;;4964866;29;20086;-62
2022/12/21 04:05:55;;;;;;;7.78;5.10;;;16.90;51.90;;;;;;4964843;29;20037;-62
2022/12/21 04:08:23;;;;;;;6.82;5.25;;;16.90;51.40;;;;;;4964649;29;20055;-62
2022/12/21 04:10:48;;;;;;;7.38;5.68;;;17.00;51.20;;;;;;4964741;29;20346;-62
2022/12/21 04:13:15;;;;;;;6.55;5.18;;;17.00;51.20;;;;;;4964603;29;20035;-64
2022/12/21 04:21:10;;;;;;;7.20;5.05;;;16.80;51.50;;;;;;4964429;29;20182;-61
2022/12/21 04:29:04;;;;;;;7.20;5.30;;;16.50;52.00;;;;;;4964443;29;20023;-63
2022/12/21 04:31:30;;;;;;;7.82;4.78;;;16.50;52.30;;;;;;4964399;29;20030;-62
2022/12/21 04:33:56;;;;;;;8.68;5.97;;;16.40;52.40;;;;;;4964306;29;20062;-62
2022/12/21 04:39:06;;;;;;;6.80;4.60;;;16.40;52.60;;;;;;4964279;29;20053;-62
2022/12/21 04:41:32;;;;;;;8.10;5.22;;;16.40;52.60;;;;;;4964183;29;20035;-64
2022/12/21 04:43:57;;;;;;;7.88;5.57;;;16.30;52.40;;;;;;4964210;29;20349;-63
2022/12/21 04:46:23;;;;;;;6.53;5.10;;;16.40;52.30;;;;;;4964207;29;20031;-61
2022/12/21 04:48:49;;;;;;;6.90;5.43;;;16.40;52.20;;;;;;4964065;29;20023;-62
2022/12/21 04:51:17;;;;;;;6.97;5.28;;;16.40;52.00;;;;;;4963893;29;20035;-62
2022/12/21 04:53:43;;;;;;;7.28;5.30;;;16.50;52.00;;;;;;4963952;29;20080;-62
2022/12/21 04:56:10;;;;;;;7.68;5.55;;;16.60;51.80;;;;;;4963964;29;20031;-62
2022/12/21 04:58:36;;;;;;;7.43;5.32;;;16.70;51.70;;;;;;4963925;29;20489;-62
2022/12/21 05:01:08;;;;;;;7.30;5.05;;;16.80;51.50;;;;;;4963865;29;20327;-64
2022/12/21 05:03:34;;;;;;;7.75;5.82;;;16.80;51.20;;;;;;4963817;29;20226;-62
2022/12/21 05:06:00;;;;;;;7.28;4.97;;;16.90;51.20;;;;;;4963780;29;20030;-61
2022/12/21 05:08:26;;;;;;;6.30;5.05;;;16.90;51.10;;;;;;4962293;29;20074;-61
2022/12/21 05:10:52;;;;;;;8.27;5.38;;;16.90;51.30;;;;;;4963707;29;20038;-62
2022/12/21 05:13:17;;;;;;;8.13;5.40;;;16.90;51.30;;;;;;4963547;29;20246;-62
2022/12/21 05:15:44;;;;;;;7.05;4.97;;;16.90;51.40;;;;;;4963579;29;20019;-63
2022/12/21 05:18:10;;;;;;;8.13;5.45;;;16.90;51.20;;;;;;4963487;29;20104;-64
2022/12/21 05:20:35;;;;;;;7.75;4.88;;;17.00;51.20;;;;;;4963532;29;20023;-63
2022/12/21 05:23:01;;;;;;;7.85;5.60;;;17.00;51.20;;;;;;4963580;29;20035;-63
2022/12/21 05:25:27;;;;;;;8.38;5.63;;;16.90;51.00;;;;;;4963425;29;20034;-63
2022/12/21 05:27:53;;;;;;;8.15;5.32;;;16.90;51.00;;;;;;4963198;28;20035;-62
2022/12/21 05:30:19;;;;;;;7.13;5.22;;;16.80;51.30;;;;;;4963411;29;20019;-62
2022/12/21 05:32:44;;;;;;;6.57;5.05;;;16.70;51.50;;;;;;4963339;29;20267;-61
2022/12/21 05:35:10;;;;;;;6.22;4.50;;;16.70;51.70;;;;;;4963364;29;20027;-62
2022/12/21 05:37:36;;;;;;;7.70;5.43;;;16.60;51.80;;;;;;4963296;29;20131;-63
2022/12/21 05:40:02;;;;;;;7.72;4.93;;;16.60;51.90;;;;;;4963149;29;20019;-62
2022/12/21 05:42:28;;;;;;;8.00;5.47;;;16.50;52.10;;;;;;4963298;29;20030;-62
2022/12/21 05:44:53;;;;;;;6.47;4.50;;;16.40;52.40;;;;;;4963151;29;20047;-63
2022/12/21 05:47:19;;;;;;;7.28;5.18;;;16.40;52.30;;;;;;4963141;29;20305;-63
2022/12/21 05:49:45;;;;;;;7.65;5.20;;;16.40;52.50;;;;;;4963033;29;20307;-62
2022/12/21 05:52:11;;;;;;;7.53;5.45;;;16.40;52.50;;;;;;4962995;29;20027;-63
2022/12/21 05:54:37;;;;;;;8.60;5.40;;;16.40;52.30;;;;;;4963008;29;20054;-62
2022/12/21 05:57:05;;;;;;;7.93;5.55;;;16.40;52.20;;;;;;4962935;29;20083;-62
2022/12/21 05:59:31;;;;;;;7.63;5.50;;;16.40;52.00;;;;;;4962975;29;20039;-61
2022/12/21 06:01:56;;;;;;;8.20;5.40;;;16.40;52.10;;;;;;4962917;29;20073;-61
2022/12/21 06:04:22;;;;;;;8.02;5.82;;;16.40;52.00;;;;;;4962946;29;20238;-62
2022/12/21 06:06:48;;;;;;;9.30;5.35;;;16.50;52.10;;;;;;4962663;29;20035;-62
2022/12/21 06:09:14;;;;;;;8.45;5.60;;;16.50;51.90;;;;;;4962807;29;20102;-63
2022/12/21 06:11:39;;;;;;;8.35;5.15;;;16.60;51.80;;;;;;4962754;29;20051;-63
2022/12/21 06:14:05;;;;;;;7.18;5.55;;;16.70;51.60;;;;;;4962861;29;20027;-62
2022/12/21 06:16:31;;;;;;;7.82;5.10;;;16.70;51.40;;;;;;4962636;29;20330;-62
2022/12/21 06:18:57;;;;;;;6.80;4.93;;;16.80;51.20;;;;;;4962770;29;20239;-62
2022/12/21 06:21:23;;;;;;;6.55;5.00;;;16.90;51.10;;;;;;4962782;29;20027;-61
2022/12/21 06:23:49;;;;;;;8.90;5.65;;;16.90;50.70;;;;;;4962755;29;20035;-62
2022/12/21 06:26:18;;;;;;;6.30;4.88;;;16.90;51.20;;;;;;4962754;29;20028;-62
2022/12/21 06:28:52;;;;;;;7.13;5.28;;;16.90;51.10;;;;;;4962754;29;20041;-62
2022/12/21 06:31:19;;;;;;;9.90;5.90;;;16.90;51.00;;;;;;4945289;29;20031;-63
2022/12/21 06:33:45;;;;;;;7.28;5.40;;;17.00;50.90;;;;;;4962439;29;20023;-62
2022/12/21 06:36:11;;;;;;;6.70;5.20;;;16.90;51.10;;;;;;4962571;29;20037;-62
2022/12/21 06:38:37;;;;;;;7.78;5.05;;;17.00;50.90;;;;;;4962512;28;20086;-61
2022/12/21 06:41:07;;;;;;;7.38;5.30;;;17.00;50.90;;;;;;4965723;29;20378;-61
2022/12/21 06:43:35;;;;;;;6.18;4.63;;;17.00;51.10;;;;;;4966302;29;20078;-62
2022/12/21 06:46:04;;;;;;;8.77;5.50;;;16.90;51.10;;;;;;4966220;29;20272;-61
2022/12/21 06:48:32;;;;;;;7.75;5.78;;;16.80;51.40;;;;;;4966255;29;20095;-62
2022/12/21 06:51:06;;;;;;;6.93;4.80;;;16.70;51.10;;;;;;4966169;29;20106;-62
2022/12/21 06:53:35;;;;;;;7.25;5.20;;;16.70;51.60;;;;;;4966083;29;20053;-62
2022/12/21 06:56:07;;;;;;;7.72;5.53;;;16.60;51.90;;;;;;4966162;29;20086;-62
2022/12/21 06:58:34;;;;;;;7.75;5.47;;;16.50;51.90;;;;;;4966062;29;20275;-62
2022/12/21 07:01:08;;;;;;;7.00;5.28;;;16.50;52.30;;;;;;4965983;29;20065;-63
2022/12/21 07:03:34;;;;;;;6.68;4.93;;;16.40;52.40;;;;;;4965951;29;20078;-64
2022/12/21 07:06:01;;;;;;;7.93;5.63;;;16.40;52.40;;;;;;4965744;29;20038;-62
2022/12/21 07:08:27;;;;;;;9.18;5.05;;;16.40;52.50;;;;;;4965661;29;20377;-62
2022/12/21 07:11:01;;;;;;;6.45;4.57;;;16.40;52.50;;;;;;4964552;29;20246;-62
2022/12/21 07:13:28;;;;;;;7.07;5.07;;;16.30;52.20;;;;;;4965689;29;20090;-63
2022/12/21 07:15:55;;;;;;;7.07;5.22;;;16.40;52.20;;;;;;4948482;29;20224;-62
2022/12/21 07:18:21;;;;;;;7.43;5.57;;;16.40;52.00;;;;;;4964454;29;20086;-62
2022/12/21 07:20:47;;;;;;;7.15;5.03;;;16.40;52.00;;;;;;4965603;29;20103;-62
2022/12/21 07:23:13;;;;;;;7.00;5.07;;;16.40;51.90;;;;;;4965638;29;20042;-61
2022/12/21 07:25:39;;;;;;;7.22;4.65;;;16.50;51.80;;;;;;4965534;29;20027;-62
2022/12/21 07:28:05;;;;;;;7.55;5.55;;;16.60;51.70;;;;;;4965512;29;20063;-62
2022/12/21 07:30:31;;;;;;;6.47;4.93;;;16.70;51.60;;;;;;4965499;29;20019;-62
2022/12/21 07:32:57;;;;;;;7.55;5.55;;;16.80;51.20;;;;;;4965348;29;20031;-61
2022/12/21 07:35:24;;;;;;;7.10;4.97;;;16.80;51.30;;;;;;4965405;29;20026;-62
2022/12/21 07:37:50;;;;;;;6.07;4.70;;;16.90;51.00;;;;;;4965377;29;20027;-62
2022/12/21 07:40:18;;;;;;;7.15;4.97;;;16.90;51.10;;;;;;4965248;29;20045;-62
2022/12/21 07:42:44;;;;;;;8.15;4.70;;;16.90;50.80;;;;;;4965269;29;20023;-62
2022/12/21 07:45:10;;;;;;;7.32;5.00;;;16.90;51.10;;;;;;4965272;29;20038;-61
2022/12/21 07:47:36;;;;;;;7.38;5.03;;;16.90;50.90;;;;;;4965101;29;20031;-62
2022/12/21 07:50:03;;;;;;;7.47;4.95;;;16.90;51.00;;;;;;4965034;28;20031;-62
2022/12/21 07:52:33;;;;;;;5.65;4.25;;;16.80;51.10;;;;;;4965097;29;20031;-61
2022/12/21 07:54:58;;;;;;;8.18;5.50;;;16.80;51.40;;;;;;4965020;29;20047;-62
2022/12/21 07:57:25;;;;;;;6.32;4.70;;;16.70;51.60;;;;;;4957193;29;20031;-62
2022/12/21 07:59:51;;;;;;;7.03;5.47;;;16.70;51.60;;;;;;4963549;29;20061;-63
2022/12/21 08:02:17;;;;;;;8.27;5.43;;;16.60;51.50;;;;;;4964798;29;20027;-63
2022/12/21 08:04:43;;;;;;;7.38;5.35;;;16.60;51.90;;;;;;4964772;29;20094;-62
2022/12/21 08:07:09;;;;;;;7.60;5.55;;;16.50;52.00;;;;;;4964601;29;20318;-63
2022/12/21 08:09:35;;;;;;;7.85;5.07;;;16.40;52.30;;;;;;4964776;29;20094;-63
2022/12/21 08:12:02;;;;;;;6.53;4.88;;;16.40;52.40;;;;;;4964719;29;20042;-61
2022/12/21 08:14:27;;;;;;;6.18;4.90;;;16.40;52.10;;;;;;4964669;29;20015;-62
2022/12/21 08:16:54;;;;;;;6.55;5.07;;;16.40;52.30;;;;;;4964590;29;20070;-62
2022/12/21 08:19:20;;;;;;;6.95;5.22;;;16.40;52.40;;;;;;4964643;29;20038;-62
2022/12/21 08:21:46;;;;;;;7.55;5.35;;;16.30;52.50;;;;;;4964567;29;20054;-62
2022/12/21 08:24:12;;;;;;;7.70;5.07;;;16.30;52.60;;;;;;4963570;29;20099;-62
2022/12/21 08:26:38;;;;;;;7.38;5.32;;;16.40;52.50;;;;;;4964514;29;20023;-62
2022/12/21 08:29:05;;;;;;;5.78;4.53;;;16.50;52.10;;;;;;4964459;29;20086;-62
2022/12/21 08:31:31;;;;;;;7.03;5.20;;;16.50;51.90;;;;;;4964330;29;20330;-62
2022/12/21 08:33:57;;;;;;;6.57;4.82;;;16.70;51.70;;;;;;4964235;29;20041;-62
2022/12/21 08:36:24;;;;;;;6.75;4.88;;;16.80;51.40;;;;;;4964247;29;20261;-63
2022/12/21 08:38:51;;;;;;;7.50;4.65;;;16.90;51.10;;;;;;4962987;29;20337;-62
2022/12/21 08:41:17;;;;;;;7.70;5.35;;;16.90;51.00;;;;;;4964135;29;20031;-62
2022/12/21 08:43:43;;;;;;;6.50;4.57;;;16.90;50.70;;;;;;4964124;29;20310;-62
2022/12/21 08:46:11;;;;;;;7.32;5.38;;;16.90;50.80;;;;;;4964082;29;20381;-62
2022/12/21 08:48:37;;;;;;;7.65;5.30;;;17.00;51.00;;;;;;4964009;29;20027;-61
2022/12/21 08:51:04;;;;;;;5.75;4.45;;;17.00;51.00;;;;;;4963906;29;20031;-62
2022/12/21 08:53:30;;;;;;;7.63;4.90;;;17.00;50.90;;;;;;4963858;29;20272;-62
2022/12/21 08:55:56;;;;;;;6.40;4.85;;;17.00;50.90;;;;;;4963904;29;20373;-61
2022/12/21 08:58:23;;;;;;;7.57;5.00;;;17.00;50.90;;;;;;4963771;29;20023;-62
2022/12/21 09:00:53;;;;;;;5.63;4.60;;;17.10;50.80;;;;;;4963640;29;20031;-61
2022/12/21 09:03:20;;;;;;;7.38;5.03;;;17.10;51.00;;;;;;4963278;28;20051;-62
2022/12/21 09:08:12;;;;;;;6.32;4.53;;;17.00;51.20;;;;;;4963227;28;20070;-62
2022/12/21 09:10:38;;;;;;;6.00;4.75;;;16.90;51.30;;;;;;4963611;29;20051;-62
2022/12/21 09:13:04;;;;;;;7.20;4.82;;;16.90;51.40;;;;;;4963103;29;20123;-62
2022/12/21 09:15:30;;;;;;;7.45;5.28;;;16.90;51.40;;;;;;4963517;29;20255;-63
2022/12/21 09:17:56;;;;;;;6.28;5.05;;;16.90;51.40;;;;;;4963511;29;20034;-62
2022/12/21 09:20:22;;;;;;;6.30;4.57;;;16.70;51.40;;;;;;4963435;29;20019;-63
2022/12/21 09:22:48;;;;;;;7.40;5.35;;;16.70;51.60;;;;;;4963429;29;20082;-64
2022/12/21 09:25:14;;;;;;;7.22;4.97;;;16.60;51.70;;;;;;4963329;29;20023;-63
2022/12/21 09:27:39;;;;;;;8.85;5.65;;;16.60;52.00;;;;;;4963302;29;20361;-63
2022/12/21 09:30:06;;;;;;;6.55;4.80;;;16.50;52.00;;;;;;4963260;29;20247;-62
2022/12/21 09:32:33;;;;;;;7.03;4.70;;;16.40;52.30;;;;;;4963180;29;20127;-63
2022/12/21 09:34:59;;;;;;;8.25;5.57;;;16.40;52.60;;;;;;4961750;29;20022;-62
2022/12/21 09:37:25;;;;;;;5.57;4.55;;;16.40;52.40;;;;;;4963140;29;20081;-62
2022/12/21 09:39:51;;;;;;;6.78;5.00;;;16.40;52.60;;;;;;4963123;29;20370;-62
2022/12/21 09:42:34;;;;;;;6.32;4.57;;;16.40;52.50;;;;;;4963052;29;20223;-62
2022/12/21 09:45:23;;;;;;;7.05;4.68;;;16.40;52.30;;;;;;4963009;29;20082;-62
2022/12/21 09:48:17;;;;;;;6.30;4.40;;;16.40;52.10;;;;;;4963060;29;20053;-62
2022/12/21 09:50:48;;;;;;;7.07;5.43;;;16.60;51.90;;;;;;4962988;29;20094;-62
2022/12/21 09:53:32;;;;;;;6.90;5.10;;;16.70;51.70;;;;;;4962940;29;20030;-62
2022/12/21 09:55:59;;;;;;;6.38;4.82;;;16.70;52.00;;;;;;4962857;29;20114;-63
2022/12/21 09:58:40;;;;;;;7.38;5.47;;;16.80;51.40;;;;;;4962845;29;20015;-62
2022/12/21 10:01:28;;;;;;;7.97;5.30;;;16.90;51.10;;;;;;4962938;29;20342;-62
2022/12/21 10:04:45;;;;;;;8.05;4.70;;;17.00;50.90;;;;;;4962876;29;20066;-62
2022/12/21 10:07:42;;;;;;;7.05;4.80;;;17.00;51.00;;;;;;4930302;29;20342;-61
2022/12/21 10:10:32;;;;;;;6.97;4.90;;;17.00;51.20;;;;;;4962790;29;20039;-62
2022/12/21 10:13:16;;;;;;;6.60;4.78;;;17.00;51.00;;;;;;4962606;29;20034;-62
2022/12/21 10:16:14;;;;;;;6.80;4.72;;;17.10;51.00;;;;;;4965740;29;20516;-61
2022/12/21 10:19:16;;;;;;;6.93;4.40;;;17.10;51.10;;;;;;4954918;29;20102;-62
2022/12/21 10:21:58;;;;;;;6.05;4.63;;;17.00;51.20;;;;;;4966499;29;20023;-63
2022/12/21 10:24:40;;;;;;;7.13;4.93;;;16.90;51.50;;;;;;4966554;29;20038;-62
2022/12/21 10:27:14;;;;;;;6.57;5.13;;;16.80;51.60;;;;;;4966562;29;20268;-62
2022/12/21 10:29:44;;;;;;;6.40;4.63;;;16.70;51.70;;;;;;4966486;29;20015;-62
2022/12/21 10:32:14;;;;;;;6.35;4.78;;;16.70;51.80;;;;;;4966381;29;20055;-62
2022/12/21 10:34:47;;;;;;;6.85;5.00;;;16.60;51.90;;;;;;4966472;29;20027;-62
2022/12/21 10:37:19;;;;;;;6.45;4.82;;;16.60;52.00;;;;;;4966494;29;20086;-61
2022/12/21 10:39:49;;;;;;;7.50;4.80;;;16.50;52.20;;;;;;4966344;29;20031;-62
2022/12/21 10:42:34;;;;;;;6.43;4.30;;;16.50;52.20;;;;;;4966315;29;20031;-63
2022/12/21 10:45:00;;;;;;;9.35;5.05;;;16.40;52.30;;;;;;4966157;29;20035;-63
2022/12/21 10:47:26;;;;;;;6.82;5.05;;;16.40;52.40;;;;;;4966186;29;20047;-63
2022/12/21 10:49:56;;;;;;;6.57;4.35;;;16.40;52.60;;;;;;4966111;29;20038;-62
2022/12/21 10:52:47;;;;;;;6.57;4.43;;;16.30;52.50;;;;;;4965901;29;20027;-63
2022/12/21 10:55:19;;;;;;;6.25;4.82;;;16.40;52.50;;;;;;4966110;29;20207;-62
2022/12/21 10:58:13;;;;;;;7.07;4.80;;;16.40;52.50;;;;;;4965964;29;20031;-62
2022/12/21 11:01:12;;;;;;;7.13;4.88;;;16.40;52.30;;;;;;4965900;29;20027;-62
2022/12/21 11:03:39;;;;;;;5.80;4.10;;;16.50;52.10;;;;;;4960347;29;20041;-62
2022/12/21 11:06:15;;;;;;;6.97;4.65;;;16.60;51.90;;;;;;4965866;29;20035;-61
2022/12/21 11:08:48;;;;;;;6.40;4.68;;;16.70;51.90;;;;;;4965683;29;20063;-62
2022/12/21 11:11:33;;;;;;;5.35;4.22;;;16.70;51.50;;;;;;4965828;29;20042;-61
2022/12/21 11:14:17;;;;;;;5.80;4.20;;;16.90;51.30;;;;;;4965648;29;20331;-61
2022/12/21 11:16:44;;;;;;;7.00;4.97;;;17.00;51.10;;;;;;4965631;29;20023;-62
2022/12/21 11:19:13;;;;;;;7.57;5.20;;;17.00;51.00;;;;;;4965713;29;20028;-61
2022/12/21 11:21:55;;;;;;;6.30;4.82;;;17.00;51.00;;;;;;4965642;29;20029;-62
2022/12/21 11:24:31;;;;;;;5.75;4.32;;;17.00;51.00;;;;;;4965534;29;20324;-63
2022/12/21 11:27:23;;;;;;;7.65;5.30;;;17.00;51.10;;;;;;4965011;28;20113;-62
2022/12/21 11:29:54;;;;;;;6.45;4.78;;;17.00;51.10;;;;;;4965425;29;20265;-63
2022/12/21 11:32:21;;;;;;;7.05;4.75;;;17.10;51.10;;;;;;4965218;29;20031;-62
2022/12/21 11:34:57;;;;;;;6.25;4.50;;;17.10;51.20;;;;;;4965177;29;20018;-62
2022/12/21 11:37:31;;;;;;;6.10;4.63;;;17.10;51.10;;;;;;4965313;29;20349;-62
2022/12/21 11:40:06;;;;;;;5.90;4.40;;;17.20;51.10;;;;;;4965259;29;20029;-62
2022/12/21 11:42:32;;;;;;;7.28;5.30;;;17.10;51.20;;;;;;4965256;29;20023;-62
2022/12/21 11:45:17;;;;;;;7.65;5.20;;;17.00;51.40;;;;;;4963829;29;20038;-62
2022/12/21 11:48:15;;;;;;;6.40;4.57;;;16.90;51.70;;;;;;4965154;29;20031;-63
2022/12/21 11:50:47;;;;;;;7.18;5.18;;;16.70;51.70;;;;;;4965066;29;20090;-62
2022/12/21 11:53:24;;;;;;;7.00;4.95;;;16.70;51.90;;;;;;4963569;29;20259;-63
2022/12/21 11:56:18;;;;;;;5.70;4.72;;;16.70;51.90;;;;;;4964987;29;20054;-61
2022/12/21 11:59:03;;;;;;;6.88;5.07;;;16.70;52.00;;;;;;4964933;29;20031;-62
2022/12/21 12:02:18;;;;;;;7.40;4.80;;;16.60;52.10;;;;;;4964937;29;20029;-62
2022/12/21 12:04:58;;;;;;;6.85;4.50;;;16.50;52.20;;;;;;4964895;29;20031;-61
2022/12/21 12:07:48;;;;;;;6.78;4.85;;;16.50;52.40;;;;;;4964630;29;20056;-62
2022/12/21 12:10:17;;;;;;;6.78;4.88;;;16.40;52.60;;;;;;4964785;29;20239;-61
2022/12/21 12:12:43;;;;;;;;;;;16.40;52.60;;;;;;4965000;29;20035;-62
2022/12/21 12:15:23;;;;;;;7.00;4.95;;;16.40;52.40;;;;;;4964609;29;19993;-63
2022/12/21 12:18:35;;;;;;;5.88;4.55;;;16.40;52.30;;;;;;4964606;29;20051;-62
2022/12/21 12:21:28;;;;;;;6.30;4.72;;;16.50;52.10;;;;;;4964537;29;20031;-62
2022/12/21 12:24:12;;;;;;;5.78;4.28;;;16.60;51.80;;;;;;4964516;29;20050;-62
2022/12/21 12:27:06;;;;;;;7.80;4.90;;;16.70;51.60;;;;;;4964443;29;20018;-64
2022/12/21 12:29:53;;;;;;;6.05;4.60;;;16.80;51.40;;;;;;4964423;29;20097;-61
2022/12/21 12:32:46;;;;;;;6.40;4.85;;;17.00;51.20;;;;;;4964242;29;20028;-62
2022/12/21 12:35:25;;;;;;;7.15;5.03;;;17.00;50.70;;;;;;4964142;29;20027;-61
2022/12/21 12:38:27;;;;;;;6.68;4.88;;;17.10;50.80;;;;;;4978510;28;20246;-62
2022/12/21 12:41:20;;;;;;;5.88;4.30;;;17.10;50.90;;;;;;4964085;29;20015;-62
2022/12/21 12:44:22;;;;;;;6.47;5.00;;;17.10;51.00;;;;;;4964075;29;20031;-62
2022/12/21 12:46:55;;;;;;;8.18;5.55;;;17.10;51.10;;;;;;4964018;29;20050;-62
2022/12/21 12:49:40;;;;;;;6.15;4.38;;;17.20;51.10;;;;;;4963908;29;20031;-62
2022/12/21 12:52:14;;;;;;;6.25;4.70;;;17.10;51.70;;;;;;4963857;29;20323;-62
2022/12/21 12:55:06;;;;;;;5.55;4.28;;;17.00;51.40;;;;;;4963837;29;20023;-62
2022/12/21 12:57:44;;;;;;;7.18;5.28;;;16.90;51.70;;;;;;4962763;29;20062;-62
2022/12/21 13:00:16;;;;;;;5.80;4.53;;;16.80;51.80;;;;;;4963687;29;20074;-63
2022/12/21 13:03:12;;;;;;;6.00;4.50;;;16.70;52.00;;;;;;4963775;29;20042;-62
2022/12/21 13:06:06;;;;;;;7.03;4.80;;;16.60;52.10;;;;;;4963718;29;20352;-62
2022/12/21 13:08:31;;;;;;;6.78;5.22;;;16.60;52.20;;;;;;4963286;29;20063;-61
2022/12/21 13:10:57;;;;;;;7.18;4.82;;;16.60;52.10;;;;;;4963544;29;20035;-62
2022/12/21 13:14:01;;;;;;;7.18;5.10;;;16.50;52.30;;;;;;4963377;29;20061;-63
2022/12/21 13:16:33;;;;;;;6.10;4.65;;;16.50;52.30;;;;;;4960006;29;20115;-61
2022/12/21 13:19:09;;;;;;;7.18;4.57;;;16.40;52.40;;;;;;4963439;29;20074;-62
2022/12/21 13:21:38;;;;;;;6.63;4.88;;;16.40;52.50;;;;;;4963482;29;20049;-62
2022/12/21 13:24:35;;;;;;;6.00;4.47;;;16.40;52.60;;;;;;4963246;29;20334;-61
2022/12/21 13:27:07;;;;;;;7.07;5.03;;;16.40;52.60;;;;;;4963342;29;20023;-63
2022/12/21 13:29:41;;;;;;;7.95;5.28;;;16.40;52.60;;;;;;4963479;29;20058;-62
2022/12/21 13:32:16;;;;;;;7.63;5.15;;;16.40;52.30;;;;;;4963221;29;20078;-62
2022/12/21 13:34:54;;;;;;;6.97;5.00;;;16.50;52.10;;;;;;4963223;29;20034;-62
2022/12/21 13:37:23;;;;;;;6.47;4.78;;;16.60;52.00;;;;;;4963010;29;20062;-64